createdAt,value
2022-11-27T00:00:41.316Z,33.47
2022-11-27T00:02:46.964Z,32.90
2022-11-27T00:04:51.275Z,33.75
2022-11-27T00:06:55.445Z,34.00
2022-11-27T00:09:00.794Z,36.50
2022-11-27T00:11:09.203Z,30.60
2022-11-27T00:13:13.488Z,32.45
2022-11-27T00:15:18.800Z,30.50
2022-11-27T00:17:23.148Z,30.42
2022-11-27T00:19:29.327Z,32.05
2022-11-27T00:21:36.738Z,28.27
2022-11-27T00:23:40.922Z,32.53
2022-11-27T00:25:51.711Z,31.42
2022-11-27T00:27:55.832Z,30.38
2022-11-27T00:30:00.121Z,29.35
2022-11-27T00:32:06.575Z,27.65
2022-11-27T00:34:11.950Z,28.40
2022-11-27T00:36:18.026Z,29.80
2022-11-27T00:38:22.737Z,30.08
2022-11-27T00:40:27.018Z,30.23
2022-11-27T00:42:31.235Z,30.30
2022-11-27T00:44:35.455Z,31.30
2022-11-27T00:46:41.050Z,32.97
2022-11-27T00:48:46.031Z,28.13
2022-11-27T00:50:50.277Z,30.25
2022-11-27T00:52:55.832Z,30.38
2022-11-27T00:55:00.185Z,37.17
2022-11-27T00:57:05.471Z,28.95
2022-11-27T00:59:11.226Z,32.20
2022-11-27T01:01:18.724Z,29.77
2022-11-27T01:03:22.982Z,29.05
2022-11-27T01:05:27.112Z,31.85
2022-11-27T01:07:31.275Z,27.65
2022-11-27T01:09:36.815Z,27.98
2022-11-27T01:11:41.888Z,32.53
2022-11-27T01:13:46.502Z,24.92
2022-11-27T01:16:02.636Z,29.80
2022-11-27T01:18:07.109Z,24.80
2022-11-27T01:20:12.214Z,26.27
2022-11-27T01:22:16.309Z,26.95
2022-11-27T01:24:20.572Z,31.85
2022-11-27T01:26:26.498Z,29.50
2022-11-27T01:28:31.059Z,35.10
2022-11-27T01:30:35.255Z,29.90
2022-11-27T01:32:39.368Z,30.95
2022-11-27T01:34:43.694Z,27.90
2022-11-27T01:36:47.890Z,28.73
2022-11-27T01:38:52.929Z,31.55
2022-11-27T01:41:00.833Z,26.92
2022-11-27T01:43:12.708Z,27.55
2022-11-27T01:45:19.209Z,26.20
2022-11-27T01:47:34.134Z,24.80
2022-11-27T01:49:41.267Z,27.38
2022-11-27T01:51:49.237Z,24.20
2022-11-27T01:53:54.766Z,25.85
2022-11-27T01:56:05.564Z,26.90
2022-11-27T01:58:13.225Z,23.77
2022-11-27T02:00:19.260Z,27.35
2022-11-27T02:02:23.399Z,22.75
2022-11-27T02:04:27.680Z,25.98
2022-11-27T02:06:32.846Z,26.00
2022-11-27T02:08:36.962Z,22.92
2022-11-27T02:10:49.467Z,25.60
2022-11-27T02:13:00.762Z,22.48
2022-11-27T02:15:14.346Z,23.80
2022-11-27T02:17:23.716Z,24.75
2022-11-27T02:19:43.650Z,25.27
2022-11-27T02:21:55.730Z,31.98
2022-11-27T02:24:33.897Z,25.92
2022-11-27T02:27:18.004Z,25.13
2022-11-27T02:29:25.641Z,25.75
2022-11-27T02:31:38.677Z,29.00
2022-11-27T02:33:47.531Z,25.70
2022-11-27T02:35:56.236Z,25.40
2022-11-27T02:38:04.200Z,24.80
2022-11-27T02:40:13.793Z,25.45
2022-11-27T02:42:21.628Z,23.60
2022-11-27T02:44:29.030Z,26.35
2022-11-27T02:46:34.172Z,26.35
2022-11-27T02:48:42.051Z,25.15
2022-11-27T02:50:47.666Z,24.67
2022-11-27T02:52:57.744Z,28.42
2022-11-27T02:55:06.380Z,25.00
2022-11-27T02:57:12.111Z,26.77
2022-11-27T02:59:17.212Z,24.15
2022-11-27T03:01:24.260Z,31.08
2022-11-27T03:03:33.794Z,28.48
2022-11-27T03:05:42.076Z,25.00
2022-11-27T03:07:52.595Z,28.30
2022-11-27T03:10:02.330Z,28.35
2022-11-27T03:12:08.743Z,24.05
2022-11-27T03:14:14.404Z,26.73
2022-11-27T03:16:28.100Z,26.30
2022-11-27T03:18:39.913Z,22.15
2022-11-27T03:20:48.003Z,24.35
2022-11-27T03:22:53.629Z,27.42
2022-11-27T03:24:57.738Z,20.85
2022-11-27T03:27:02.255Z,22.05
2022-11-27T03:29:10.492Z,21.77
2022-11-27T03:31:15.313Z,22.95
2022-11-27T03:33:21.042Z,22.45
2022-11-27T03:35:27.455Z,26.13
2022-11-27T03:37:31.637Z,23.77
2022-11-27T03:39:36.212Z,24.08
2022-11-27T03:41:46.804Z,24.15
2022-11-27T03:44:00.972Z,25.33
2022-11-27T03:46:12.352Z,29.13
2022-11-27T03:48:26.006Z,23.15
2022-11-27T03:50:36.921Z,26.58
2022-11-27T03:52:46.234Z,27.70
2022-11-27T03:54:56.717Z,25.60
2022-11-27T03:57:14.575Z,21.88
2022-11-27T03:59:24.285Z,22.85
2022-11-27T04:01:29.801Z,24.42
2022-11-27T04:03:36.151Z,25.73
2022-11-27T04:05:40.716Z,25.45
2022-11-27T04:07:44.930Z,29.77
2022-11-27T04:09:49.107Z,28.90
2022-11-27T04:11:53.111Z,27.42
2022-11-27T04:13:57.761Z,28.05
2022-11-27T04:16:02.828Z,26.98
2022-11-27T04:18:07.092Z,30.83
2022-11-27T04:20:15.397Z,26.58
2022-11-27T04:22:20.119Z,27.83
2022-11-27T04:24:24.465Z,26.88
2022-11-27T04:26:28.539Z,28.13
2022-11-27T04:28:32.694Z,24.83
2022-11-27T04:30:37.047Z,24.98
2022-11-27T04:32:41.802Z,22.60
2022-11-27T04:34:46.021Z,23.02
2022-11-27T04:36:51.538Z,23.33
2022-11-27T04:38:57.092Z,26.52
2022-11-27T04:41:01.420Z,24.50
2022-11-27T04:43:05.523Z,28.50
2022-11-27T04:45:11.595Z,35.38
2022-11-27T04:47:15.792Z,37.50
2022-11-27T04:49:19.893Z,36.97
2022-11-27T04:51:24.263Z,36.90
2022-11-27T04:53:29.842Z,68.25
2022-11-27T04:55:34.040Z,78.30
2022-11-27T04:57:38.327Z,49.05
2022-11-27T04:59:42.586Z,34.53
2022-11-27T05:01:46.998Z,34.70
2022-11-27T05:03:51.402Z,34.67
2022-11-27T05:05:57.516Z,31.80
2022-11-27T05:08:01.691Z,31.10
2022-11-27T05:10:08.651Z,30.30
2022-11-27T05:12:12.859Z,32.22
2022-11-27T05:14:18.141Z,34.90
2022-11-27T05:16:22.591Z,34.65
2022-11-27T05:18:27.101Z,33.72
2022-11-27T05:20:31.356Z,27.67
2022-11-27T05:22:35.777Z,29.17
2022-11-27T05:24:40.720Z,33.75
2022-11-27T05:26:48.055Z,30.75
2022-11-27T05:28:53.504Z,28.45
2022-11-27T05:30:57.815Z,37.80
2022-11-27T05:33:02.144Z,33.53
2022-11-27T05:35:06.991Z,30.35
2022-11-27T05:37:17.915Z,32.67
2022-11-27T05:39:23.942Z,32.05
2022-11-27T05:41:28.897Z,29.98
2022-11-27T05:43:34.900Z,28.42
2022-11-27T05:45:39.838Z,27.83
2022-11-27T05:47:45.308Z,27.83
2022-11-27T05:49:49.421Z,26.88
2022-11-27T05:51:53.763Z,27.88
2022-11-27T05:53:57.909Z,26.23
2022-11-27T05:56:03.772Z,26.00
2022-11-27T05:58:07.935Z,24.73
2022-11-27T06:00:16.400Z,26.67
2022-11-27T06:02:31.166Z,25.35
2022-11-27T06:04:35.779Z,26.52
2022-11-27T06:06:39.930Z,26.42
2022-11-27T06:08:48.014Z,25.52
2022-11-27T06:10:52.214Z,25.92
2022-11-27T06:12:57.168Z,24.30
2022-11-27T06:15:01.302Z,26.75
2022-11-27T06:17:08.529Z,26.10
2022-11-27T06:19:12.708Z,23.00
2022-11-27T06:21:16.970Z,28.13
2022-11-27T06:23:22.419Z,28.55
2022-11-27T06:25:27.449Z,26.48
2022-11-27T06:27:34.405Z,31.25
2022-11-27T06:29:38.774Z,26.02
2022-11-27T06:31:43.229Z,28.50
2022-11-27T06:33:49.818Z,31.42
2022-11-27T06:35:56.941Z,28.40
2022-11-27T06:38:01.009Z,28.75
2022-11-27T06:40:06.436Z,28.52
2022-11-27T06:42:10.951Z,30.67
2022-11-27T06:44:15.213Z,26.58
2022-11-27T06:46:21.358Z,31.70
2022-11-27T06:48:25.758Z,27.95
2022-11-27T06:50:31.304Z,26.48
2022-11-27T06:52:40.139Z,21.80
2022-11-27T06:54:44.775Z,26.23
2022-11-27T06:56:51.344Z,24.42
2022-11-27T06:58:57.687Z,23.15
2022-11-27T07:01:04.963Z,22.50
2022-11-27T07:03:09.050Z,22.48
2022-11-27T07:05:13.163Z,24.63
2022-11-27T07:07:18.734Z,24.73
2022-11-27T07:09:23.052Z,26.88
2022-11-27T07:11:30.174Z,24.67
2022-11-27T07:13:36.820Z,25.95
2022-11-27T07:15:41.021Z,24.92
2022-11-27T07:17:46.537Z,24.98
2022-11-27T07:19:50.659Z,22.98
2022-11-27T07:21:54.758Z,21.15
2022-11-27T07:24:00.527Z,18.10
2022-11-27T07:26:07.626Z,22.15
2022-11-27T07:28:16.004Z,16.48
2022-11-27T07:30:22.979Z,17.90
2022-11-27T07:32:27.117Z,19.25
2022-11-27T07:34:31.222Z,17.00
2022-11-27T07:36:35.404Z,20.42
2022-11-27T07:38:39.499Z,19.30
2022-11-27T07:40:45.049Z,21.50
2022-11-27T07:42:49.291Z,18.73
2022-11-27T07:44:54.636Z,21.05
2022-11-27T07:46:58.713Z,22.58
2022-11-27T07:49:03.945Z,18.73
2022-11-27T07:51:08.710Z,18.33
2022-11-27T07:53:12.816Z,17.67
2022-11-27T07:55:17.121Z,22.98
2022-11-27T07:57:23.314Z,18.42
2022-11-27T07:59:27.798Z,19.58
2022-11-27T08:01:32.103Z,16.42
2022-11-27T08:03:36.428Z,16.23
2022-11-27T08:05:40.615Z,18.73
2022-11-27T08:07:44.749Z,17.65
2022-11-27T08:09:48.962Z,17.48
2022-11-27T08:11:53.457Z,18.92
2022-11-27T08:14:00.959Z,22.35
2022-11-27T08:16:05.133Z,20.23
2022-11-27T08:18:09.299Z,18.63
2022-11-27T08:20:13.709Z,21.02
2022-11-27T08:22:19.684Z,24.92
2022-11-27T08:24:24.090Z,22.00
2022-11-27T08:26:28.991Z,20.40
2022-11-27T08:28:34.259Z,24.83
2022-11-27T08:30:39.970Z,20.58
2022-11-27T08:32:45.282Z,21.23
2022-11-27T08:34:49.501Z,20.67
2022-11-27T08:36:53.618Z,22.05
2022-11-27T08:38:58.439Z,26.08
2022-11-27T08:41:04.208Z,22.00
2022-11-27T08:43:08.389Z,24.73
2022-11-27T08:45:12.797Z,27.50
2022-11-27T08:47:20.031Z,28.27
2022-11-27T08:49:25.411Z,29.30
2022-11-27T08:51:29.997Z,32.30
2022-11-27T08:53:34.111Z,32.88
2022-11-27T08:55:38.436Z,32.17
2022-11-27T08:57:42.579Z,33.40
2022-11-27T08:59:47.002Z,34.05
2022-11-27T09:01:51.162Z,36.78
2022-11-27T09:03:57.028Z,40.13
2022-11-27T09:06:01.338Z,38.92
2022-11-27T09:08:05.556Z,34.33
2022-11-27T09:10:13.381Z,34.22
2022-11-27T09:12:18.046Z,37.30
2022-11-27T09:14:22.565Z,37.30
2022-11-27T09:16:26.727Z,33.03
2022-11-27T09:18:31.258Z,31.08
2022-11-27T09:20:36.811Z,27.67
2022-11-27T09:22:41.302Z,27.38
2022-11-27T09:24:45.694Z,29.15
2022-11-27T09:26:50.233Z,32.72
2022-11-27T09:28:55.369Z,35.70
2022-11-27T09:31:00.919Z,30.95
2022-11-27T09:33:05.446Z,29.60
2022-11-27T09:35:10.229Z,35.95
2022-11-27T09:37:16.452Z,33.92
2022-11-27T09:39:21.622Z,29.67
2022-11-27T09:41:41.924Z,31.05
2022-11-27T09:43:51.530Z,28.08
2022-11-27T09:46:01.506Z,30.65
2022-11-27T09:50:16.521Z,29.70
2022-11-27T09:52:28.131Z,30.48
2022-11-27T09:54:38.736Z,25.35
2022-11-27T09:56:48.279Z,29.00
2022-11-27T09:58:59.342Z,31.40
2022-11-27T10:01:10.665Z,32.05
2022-11-27T10:03:17.024Z,26.88
2022-11-27T10:05:24.189Z,27.67
2022-11-27T10:07:43.389Z,26.60
2022-11-27T10:10:01.326Z,29.75
2022-11-27T10:12:14.886Z,31.70
2022-11-27T10:14:35.403Z,26.80
2022-11-27T10:16:45.045Z,29.67
2022-11-27T10:18:54.871Z,26.67
2022-11-27T10:21:04.166Z,31.20
2022-11-27T10:23:19.898Z,23.83
2022-11-27T10:25:30.981Z,23.85
2022-11-27T10:27:41.909Z,21.55
2022-11-27T10:29:53.358Z,22.35
2022-11-27T10:32:02.722Z,22.08
2022-11-27T10:34:27.353Z,24.13
2022-11-27T10:36:37.076Z,26.42
2022-11-27T10:38:44.890Z,21.40
2022-11-27T10:40:58.997Z,25.48
2022-11-27T10:43:11.747Z,23.33
2022-11-27T10:45:22.889Z,27.40
2022-11-27T10:47:33.443Z,22.25
2022-11-27T10:50:10.476Z,25.63
2022-11-27T10:53:01.788Z,22.02
2022-11-27T10:55:22.241Z,25.13
2022-11-27T10:57:47.734Z,25.20
2022-11-27T11:00:05.155Z,24.98
2022-11-27T11:02:28.380Z,21.40
2022-11-27T11:04:54.493Z,24.73
2022-11-27T11:06:59.444Z,22.58
2022-11-27T11:09:06.433Z,24.58
2022-11-27T11:11:15.016Z,21.35
2022-11-27T11:13:22.506Z,20.38
2022-11-27T11:15:26.809Z,20.08
2022-11-27T11:17:35.007Z,20.70
2022-11-27T11:19:39.498Z,23.25
2022-11-27T11:21:45.217Z,20.58
2022-11-27T11:23:58.912Z,20.27
2022-11-27T11:26:08.732Z,18.92
2022-11-27T11:28:19.143Z,21.10
2022-11-27T11:30:25.357Z,20.45
2022-11-27T11:32:32.087Z,47.35
2022-11-27T11:34:37.870Z,19.30
2022-11-27T11:36:43.636Z,20.70
2022-11-27T11:38:49.803Z,21.05
2022-11-27T11:41:04.102Z,22.92
2022-11-27T11:43:26.913Z,19.83
2022-11-27T11:45:33.401Z,20.90
2022-11-27T11:47:46.508Z,21.10
2022-11-27T11:49:52.090Z,26.40
2022-11-27T11:52:13.126Z,21.20
2022-11-27T11:54:36.595Z,21.58
2022-11-27T11:56:46.903Z,23.00
2022-11-27T11:58:58.706Z,21.67
2022-11-27T12:01:28.246Z,19.05
2022-11-27T12:03:49.330Z,23.10
2022-11-27T12:06:09.811Z,25.45
2022-11-27T12:08:33.134Z,22.95
2022-11-27T12:10:47.087Z,23.83
2022-11-27T12:13:02.657Z,22.58
2022-11-27T12:15:17.801Z,24.13
2022-11-27T12:17:40.678Z,22.65
2022-11-27T12:20:11.619Z,31.70
2022-11-27T12:22:24.827Z,26.27
2022-11-27T12:24:40.104Z,28.35
2022-11-27T12:26:59.911Z,23.55
2022-11-27T12:29:18.420Z,24.30
2022-11-27T12:31:36.004Z,23.85
2022-11-27T12:33:55.872Z,20.67
2022-11-27T12:36:08.931Z,23.25
2022-11-27T12:38:39.787Z,18.70
2022-11-27T12:41:04.039Z,21.50
2022-11-27T12:43:18.023Z,18.05
2022-11-27T12:45:27.007Z,20.85
2022-11-27T12:47:40.477Z,19.48
2022-11-27T12:49:49.188Z,19.77
2022-11-27T12:51:56.422Z,22.17
2022-11-27T12:54:05.105Z,18.65
2022-11-27T12:56:16.076Z,18.58
2022-11-27T12:58:27.085Z,21.52
2022-11-27T13:00:33.253Z,23.15
2022-11-27T13:02:43.535Z,19.25
2022-11-27T13:04:53.135Z,18.77
2022-11-27T13:07:02.700Z,19.50
2022-11-27T13:09:14.910Z,21.08
2022-11-27T13:11:24.954Z,28.23
2022-11-27T13:13:35.969Z,26.50
2022-11-27T13:15:44.297Z,23.55
2022-11-27T13:17:56.747Z,18.23
2022-11-27T13:20:02.357Z,18.95
2022-11-27T13:22:12.258Z,21.02
2022-11-27T13:24:17.094Z,24.40
2022-11-27T13:26:26.660Z,17.92
2022-11-27T13:28:38.552Z,22.33
2022-11-27T13:30:43.503Z,20.50
2022-11-27T13:32:53.647Z,17.63
2022-11-27T13:37:06.159Z,20.38
2022-11-27T13:39:23.896Z,21.67
2022-11-27T13:41:34.749Z,20.45
2022-11-27T13:43:44.502Z,20.83
2022-11-27T13:45:49.294Z,26.60
2022-11-27T13:47:56.371Z,20.35
2022-11-27T13:50:03.483Z,24.70
2022-11-27T13:52:14.888Z,30.85
2022-11-27T13:54:27.514Z,44.28
2022-11-27T13:56:32.505Z,47.17
2022-11-27T13:58:39.071Z,45.67
2022-11-27T14:00:45.801Z,50.85
2022-11-27T14:02:52.426Z,51.50
2022-11-27T14:04:58.024Z,51.60
2022-11-27T14:07:06.911Z,49.13
2022-11-27T14:09:11.102Z,46.53
2022-11-27T14:11:15.380Z,50.55
2022-11-27T14:13:22.413Z,42.05
2022-11-27T14:15:32.660Z,56.67
2022-11-27T14:17:40.542Z,47.75
2022-11-27T14:19:46.692Z,57.53
2022-11-27T14:21:52.324Z,53.83
2022-11-27T14:23:56.432Z,54.13
2022-11-27T14:26:08.585Z,54.85
2022-11-27T14:28:21.642Z,56.28
2022-11-27T14:30:32.555Z,53.47
2022-11-27T14:32:37.271Z,56.88
2022-11-27T14:34:41.887Z,52.53
2022-11-27T14:36:46.909Z,53.83
2022-11-27T14:38:52.573Z,48.97
2022-11-27T14:41:09.057Z,50.50
2022-11-27T14:43:17.383Z,51.20
2022-11-27T14:45:23.997Z,51.85
2022-11-27T14:47:28.463Z,50.28
2022-11-27T14:49:34.206Z,46.33
2022-11-27T14:51:38.647Z,55.30
2022-11-27T14:53:43.443Z,50.25
2022-11-27T14:55:49.829Z,49.58
2022-11-27T14:57:53.993Z,50.20
2022-11-27T15:00:17.431Z,48.25
2022-11-27T15:02:27.616Z,51.40
2022-11-27T15:04:36.275Z,54.08
2022-11-27T15:06:44.956Z,54.40
2022-11-27T15:09:09.020Z,51.13
2022-11-27T15:11:35.765Z,49.42
2022-11-27T15:13:46.220Z,56.83
2022-11-27T15:15:56.970Z,58.10
2022-11-27T15:18:04.577Z,55.80
2022-11-27T15:20:16.776Z,56.65
2022-11-27T15:22:21.382Z,57.72
2022-11-27T15:24:36.333Z,53.42
2022-11-27T15:26:45.041Z,49.70
2022-11-27T15:28:53.945Z,54.92
2022-11-27T15:30:59.615Z,55.50
2022-11-27T15:33:04.018Z,49.92
2022-11-27T15:35:15.118Z,57.28
2022-11-27T15:37:25.994Z,51.42
2022-11-27T15:39:39.160Z,53.65
2022-11-27T15:41:54.968Z,52.72
2022-11-27T15:43:59.273Z,53.63
2022-11-27T15:46:08.573Z,56.63
2022-11-27T15:48:16.876Z,53.53
2022-11-27T15:50:21.318Z,57.80
2022-11-27T15:52:27.025Z,56.15
2022-11-27T15:54:31.251Z,57.67
2022-11-27T15:56:36.505Z,60.55
2022-11-27T15:58:42.984Z,55.22
2022-11-27T16:00:47.600Z,54.92
2022-11-27T16:02:52.539Z,55.28
2022-11-27T16:04:56.946Z,58.35
2022-11-27T16:07:01.144Z,51.08
2022-11-27T16:09:06.339Z,51.88
2022-11-27T16:11:14.763Z,54.90
2022-11-27T16:13:19.055Z,54.00
2022-11-27T16:15:28.835Z,54.72
2022-11-27T16:17:36.359Z,54.10
2022-11-27T16:19:40.746Z,57.97
2022-11-27T16:21:46.375Z,58.92
2022-11-27T16:23:50.617Z,54.35
2022-11-27T16:25:55.036Z,54.60
2022-11-27T16:28:02.721Z,56.15
2022-11-27T16:30:09.009Z,62.60
2022-11-27T16:32:14.746Z,57.15
2022-11-27T16:34:19.336Z,54.53
2022-11-27T16:36:25.369Z,63.38
2022-11-27T16:38:29.843Z,53.05
2022-11-27T16:40:34.951Z,60.08
2022-11-27T16:42:40.012Z,64.18
2022-11-27T16:44:44.652Z,56.65
2022-11-27T16:46:48.863Z,59.42
2022-11-27T16:48:56.045Z,61.33
2022-11-27T16:51:04.571Z,59.08
2022-11-27T16:53:09.878Z,58.28
2022-11-27T16:55:15.113Z,56.53
2022-11-27T16:57:22.104Z,56.13
2022-11-27T16:59:26.246Z,51.78
2022-11-27T17:01:32.847Z,57.70
2022-11-27T17:03:37.701Z,54.38
2022-11-27T17:05:47.522Z,62.05
2022-11-27T17:07:54.361Z,54.65
2022-11-27T17:09:59.790Z,55.05
2022-11-27T17:12:03.995Z,56.20
2022-11-27T17:14:10.732Z,54.50
2022-11-27T17:16:15.007Z,56.88
2022-11-27T17:18:20.439Z,56.95
2022-11-27T17:20:24.776Z,60.03
2022-11-27T17:22:31.093Z,58.75
2022-11-27T17:24:36.770Z,58.42
2022-11-27T17:26:43.668Z,62.38
2022-11-27T17:28:48.248Z,66.25
2022-11-27T17:30:52.918Z,68.20
2022-11-27T17:32:58.186Z,60.50
2022-11-27T17:35:02.764Z,69.43
2022-11-27T17:37:07.434Z,71.35
2022-11-27T17:39:14.584Z,66.07
2022-11-27T17:41:19.739Z,64.78
2022-11-27T17:43:25.647Z,70.18
2022-11-27T17:45:29.754Z,63.05
2022-11-27T17:47:35.239Z,71.03
2022-11-27T17:49:40.465Z,81.70
2022-11-27T17:51:46.123Z,78.20
2022-11-27T17:53:51.784Z,78.95
2022-11-27T17:55:57.527Z,83.65
2022-11-27T17:58:01.745Z,75.82
2022-11-27T18:00:07.386Z,74.80
2022-11-27T18:02:18.473Z,95.18
2022-11-27T18:04:23.225Z,87.80
2022-11-27T18:06:28.267Z,86.47
2022-11-27T18:08:36.419Z,79.93
2022-11-27T18:10:41.691Z,88.25
2022-11-27T18:12:47.818Z,97.20
2022-11-27T18:14:55.432Z,85.25
2022-11-27T18:17:07.157Z,85.63
2022-11-27T18:19:12.649Z,92.78
2022-11-27T18:21:18.906Z,91.25
2022-11-27T18:23:23.258Z,109.40
2022-11-27T18:25:27.433Z,107.25
2022-11-27T18:27:32.786Z,109.10
2022-11-27T18:29:40.066Z,116.13
2022-11-27T18:31:44.410Z,115.60
2022-11-27T18:33:49.239Z,128.02
2022-11-27T18:35:54.635Z,123.90
2022-11-27T18:37:58.749Z,132.02
2022-11-27T18:40:03.021Z,152.50
2022-11-27T18:42:10.496Z,134.95
2022-11-27T18:44:15.654Z,153.23
2022-11-27T18:46:22.025Z,160.50
2022-11-27T18:48:26.649Z,138.88
2022-11-27T18:50:30.729Z,148.25
2022-11-27T18:52:35.017Z,144.60
2022-11-27T18:54:39.531Z,141.50
2022-11-27T18:56:44.795Z,141.25
2022-11-27T18:58:50.809Z,140.15
2022-11-27T19:00:57.582Z,145.73
2022-11-27T19:03:03.740Z,140.32
2022-11-27T19:05:09.005Z,172.77
2022-11-27T19:07:13.263Z,179.32
2022-11-27T19:09:18.105Z,115.85
2022-11-27T19:11:24.081Z,126.40
2022-11-27T19:13:28.445Z,115.45
2022-11-27T19:15:32.977Z,126.97
2022-11-27T19:17:37.952Z,115.93
2022-11-27T19:19:59.751Z,128.00
2022-11-27T19:22:04.065Z,122.15
2022-11-27T19:24:12.359Z,116.57
2022-11-27T19:26:19.235Z,113.50
2022-11-27T19:28:23.751Z,120.25
2022-11-27T19:30:32.757Z,115.50
2022-11-27T19:32:38.433Z,116.88
2022-11-27T19:34:44.865Z,110.93
2022-11-27T19:36:49.711Z,114.97
2022-11-27T19:38:56.683Z,116.90
2022-11-27T19:41:01.102Z,106.47
2022-11-27T19:43:05.708Z,113.10
2022-11-27T19:45:11.121Z,113.50
2022-11-27T19:47:15.523Z,124.35
2022-11-27T19:49:21.507Z,113.63
2022-11-27T19:51:28.582Z,110.28
2022-11-27T19:53:33.508Z,113.75
2022-11-27T19:55:37.997Z,103.03
2022-11-27T19:57:42.324Z,104.20
2022-11-27T19:59:46.853Z,113.93
2022-11-27T20:01:51.135Z,103.40
2022-11-27T20:04:02.142Z,102.88
2022-11-27T20:06:08.588Z,128.43
2022-11-27T20:08:14.382Z,126.32
2022-11-27T20:10:18.957Z,116.03
2022-11-27T20:12:23.172Z,106.97
2022-11-27T20:14:28.246Z,107.43
2022-11-27T20:16:34.184Z,110.53
2022-11-27T20:18:39.423Z,121.32
2022-11-27T20:20:44.244Z,106.68
2022-11-27T20:22:50.392Z,129.32
2022-11-27T20:25:18.523Z,121.70
2022-11-27T20:27:21.977Z,127.28
2022-11-27T20:29:26.366Z,119.88
2022-11-27T20:31:32.898Z,201.98
2022-11-27T20:33:37.229Z,153.75
2022-11-27T20:35:43.212Z,120.47
2022-11-27T20:37:47.509Z,114.88
2022-11-27T20:39:51.841Z,151.82
2022-11-27T20:41:57.958Z,114.90
2022-11-27T20:44:04.827Z,153.25
2022-11-27T20:46:10.128Z,121.32
2022-11-27T20:48:15.041Z,117.80
2022-11-27T20:50:19.753Z,102.32
2022-11-27T20:52:24.215Z,99.45
2022-11-27T20:54:29.338Z,89.10
2022-11-27T20:56:34.018Z,95.25
2022-11-27T20:58:43.047Z,92.13
2022-11-27T21:00:47.209Z,100.60
2022-11-27T21:02:51.346Z,103.18
2022-11-27T21:04:55.992Z,114.85
2022-11-27T21:07:00.200Z,103.45
2022-11-27T21:09:08.543Z,107.07
2022-11-27T21:11:14.970Z,112.45
2022-11-27T21:13:20.351Z,112.35
2022-11-27T21:15:26.880Z,115.22
2022-11-27T21:17:31.208Z,107.70
2022-11-27T21:19:35.507Z,113.40
2022-11-27T21:21:39.670Z,118.28
2022-11-27T21:23:44.058Z,107.38
2022-11-27T21:25:48.597Z,103.57
2022-11-27T21:27:55.884Z,105.43
2022-11-27T21:30:00.175Z,106.70
2022-11-27T21:32:06.081Z,102.30
2022-11-27T21:34:12.691Z,104.65
2022-11-27T21:36:18.776Z,112.18
2022-11-27T21:38:24.083Z,111.28
2022-11-27T21:40:28.299Z,112.70
2022-11-27T21:42:33.129Z,110.53
2022-11-27T21:44:41.352Z,105.13
2022-11-27T21:46:45.992Z,102.75
2022-11-27T21:48:56.222Z,99.75
2022-11-27T21:51:02.278Z,101.97
2022-11-27T21:53:07.102Z,106.10
2022-11-27T21:55:12.315Z,103.57
2022-11-27T21:57:17.352Z,107.60
2022-11-27T21:59:21.546Z,93.68
2022-11-27T22:01:26.868Z,92.55
2022-11-27T22:03:31.120Z,96.72
2022-11-27T22:05:38.442Z,101.43
2022-11-27T22:07:42.857Z,97.05
2022-11-27T22:09:47.062Z,96.13
2022-11-27T22:11:53.382Z,95.97
2022-11-27T22:13:58.122Z,93.28
2022-11-27T22:16:03.135Z,106.05
2022-11-27T22:18:07.409Z,95.25
2022-11-27T22:20:12.500Z,103.80
2022-11-27T22:22:18.160Z,98.63
2022-11-27T22:24:22.266Z,101.75
2022-11-27T22:26:30.173Z,97.63
2022-11-27T22:28:36.208Z,98.10
2022-11-27T22:30:40.559Z,103.30
2022-11-27T22:32:45.482Z,115.00
2022-11-27T22:34:49.709Z,100.80
2022-11-27T22:36:56.940Z,107.07
2022-11-27T22:39:05.071Z,99.13
2022-11-27T22:41:10.532Z,95.22
2022-11-27T22:43:15.443Z,89.68
2022-11-27T22:45:19.926Z,88.68
2022-11-27T22:47:24.053Z,89.22
2022-11-27T22:49:28.766Z,92.53
2022-11-27T22:51:35.572Z,100.10
2022-11-27T22:53:40.269Z,96.13
2022-11-27T22:55:45.810Z,89.22
2022-11-27T22:57:50.046Z,89.10
2022-11-27T22:59:54.225Z,86.55
2022-11-27T23:01:58.417Z,91.72
2022-11-27T23:04:03.521Z,91.50
2022-11-27T23:06:11.997Z,85.40
2022-11-27T23:08:16.309Z,94.25
2022-11-27T23:10:20.781Z,87.47
2022-11-27T23:12:26.393Z,81.85
2022-11-27T23:14:30.724Z,93.38
2022-11-27T23:16:35.265Z,80.95
2022-11-27T23:18:40.107Z,84.60
2022-11-27T23:20:44.740Z,78.45
2022-11-27T23:22:50.083Z,86.38
2022-11-27T23:24:55.023Z,76.50
2022-11-27T23:26:59.294Z,84.13
2022-11-27T23:29:05.262Z,84.28
2022-11-27T23:31:31.407Z,86.55
2022-11-27T23:33:36.042Z,83.78
2022-11-27T23:35:40.153Z,85.65
2022-11-27T23:37:45.340Z,83.68
2022-11-27T23:39:49.518Z,84.35
2022-11-27T23:41:53.616Z,84.85
2022-11-27T23:43:58.104Z,81.05
2022-11-27T23:46:05.669Z,78.13
2022-11-27T23:48:09.864Z,72.65
2022-11-27T23:50:14.201Z,76.53
2022-11-27T23:52:18.874Z,81.20
2022-11-27T23:54:23.033Z,76.85
2022-11-27T23:56:29.660Z,74.25
2022-11-27T23:58:33.868Z,85.15
